sensor_id;sensor_type;location;lat;lon;timestamp;P1;durP1;ratioP1;P2;durP2;ratioP2
46613;SDS011;32338;50.430;6.806;2023-07-20T00:01:30;3.00;;;2.03;;
46613;SDS011;32338;50.430;6.806;2023-07-20T00:03:56;4.95;;;2.08;;
46613;SDS011;32338;50.430;6.806;2023-07-20T00:06:23;2.08;;;1.70;;
46613;SDS011;32338;50.430;6.806;2023-07-20T00:08:52;4.97;;;2.20;;
46613;SDS011;32338;50.430;6.806;2023-07-20T00:11:19;6.57;;;1.85;;
46613;SDS011;32338;50.430;6.806;2023-07-20T00:13:46;4.45;;;1.98;;
46613;SDS011;32338;50.430;6.806;2023-07-20T00:16:12;5.28;;;2.00;;
46613;SDS011;32338;50.430;6.806;2023-07-20T00:18:40;6.45;;;1.70;;
46613;SDS011;32338;50.430;6.806;2023-07-20T00:21:07;3.92;;;1.75;;
46613;SDS011;32338;50.430;6.806;2023-07-20T00:23:33;1.95;;;1.70;;
46613;SDS011;32338;50.430;6.806;2023-07-20T00:26:00;2.97;;;1.73;;
46613;SDS011;32338;50.430;6.806;2023-07-20T00:28:27;5.18;;;2.10;;
46613;SDS011;32338;50.430;6.806;2023-07-20T00:30:53;5.72;;;1.95;;
46613;SDS011;32338;50.430;6.806;2023-07-20T00:33:20;5.15;;;1.50;;
46613;SDS011;32338;50.430;6.806;2023-07-20T00:35:48;4.80;;;1.65;;
46613;SDS011;32338;50.430;6.806;2023-07-20T00:38:15;3.55;;;1.80;;
46613;SDS011;32338;50.430;6.806;2023-07-20T00:40:41;2.90;;;1.92;;
46613;SDS011;32338;50.430;6.806;2023-07-20T00:43:08;2.95;;;1.75;;
46613;SDS011;32338;50.430;6.806;2023-07-20T00:45:34;3.28;;;2.25;;
46613;SDS011;32338;50.430;6.806;2023-07-20T00:48:02;4.10;;;1.70;;
46613;SDS011;32338;50.430;6.806;2023-07-20T00:50:31;3.40;;;2.08;;
46613;SDS011;32338;50.430;6.806;2023-07-20T00:53:00;2.35;;;1.90;;
46613;SDS011;32338;50.430;6.806;2023-07-20T00:55:28;4.57;;;1.70;;
46613;SDS011;32338;50.430;6.806;2023-07-20T00:57:55;3.45;;;1.73;;
46613;SDS011;32338;50.430;6.806;2023-07-20T01:00:21;3.55;;;1.48;;
46613;SDS011;32338;50.430;6.806;2023-07-20T01:02:48;4.68;;;1.80;;
46613;SDS011;32338;50.430;6.806;2023-07-20T01:05:15;3.17;;;1.83;;
46613;SDS011;32338;50.430;6.806;2023-07-20T01:07:43;4.13;;;1.50;;
46613;SDS011;32338;50.430;6.806;2023-07-20T01:10:20;2.97;;;2.00;;
46613;SDS011;32338;50.430;6.806;2023-07-20T01:12:55;4.03;;;1.50;;
46613;SDS011;32338;50.430;6.806;2023-07-20T01:15:22;5.05;;;1.88;;
46613;SDS011;32338;50.430;6.806;2023-07-20T01:17:49;6.20;;;1.48;;
46613;SDS011;32338;50.430;6.806;2023-07-20T01:20:16;3.13;;;1.83;;
46613;SDS011;32338;50.430;6.806;2023-07-20T01:22:55;5.05;;;1.90;;
46613;SDS011;32338;50.430;6.806;2023-07-20T01:25:53;7.65;;;1.92;;
46613;SDS011;32338;50.430;6.806;2023-07-20T01:28:36;4.10;;;1.98;;
46613;SDS011;32338;50.430;6.806;2023-07-20T01:31:25;2.10;;;1.65;;
46613;SDS011;32338;50.430;6.806;2023-07-20T01:33:55;4.20;;;2.10;;
46613;SDS011;32338;50.430;6.806;2023-07-20T01:36:24;5.13;;;1.73;;
46613;SDS011;32338;50.430;6.806;2023-07-20T01:38:54;3.85;;;1.92;;
46613;SDS011;32338;50.430;6.806;2023-07-20T01:41:21;4.30;;;1.98;;
46613;SDS011;32338;50.430;6.806;2023-07-20T01:43:49;4.18;;;1.85;;
46613;SDS011;32338;50.430;6.806;2023-07-20T01:46:15;2.78;;;1.92;;
46613;SDS011;32338;50.430;6.806;2023-07-20T01:48:43;5.60;;;1.63;;
46613;SDS011;32338;50.430;6.806;2023-07-20T01:51:10;3.47;;;1.75;;
46613;SDS011;32338;50.430;6.806;2023-07-20T01:53:37;2.42;;;1.60;;
46613;SDS011;32338;50.430;6.806;2023-07-20T01:56:03;3.28;;;1.70;;
46613;SDS011;32338;50.430;6.806;2023-07-20T01:58:30;2.95;;;1.50;;
46613;SDS011;32338;50.430;6.806;2023-07-20T02:00:56;2.85;;;1.85;;
46613;SDS011;32338;50.430;6.806;2023-07-20T02:03:23;3.67;;;1.77;;
46613;SDS011;32338;50.430;6.806;2023-07-20T02:05:53;2.63;;;1.73;;
46613;SDS011;32338;50.430;6.806;2023-07-20T02:08:19;3.17;;;1.88;;
46613;SDS011;32338;50.430;6.806;2023-07-20T02:10:46;2.95;;;1.48;;
46613;SDS011;32338;50.430;6.806;2023-07-20T02:13:13;3.53;;;1.45;;
46613;SDS011;32338;50.430;6.806;2023-07-20T02:15:39;4.10;;;1.60;;
46613;SDS011;32338;50.430;6.806;2023-07-20T02:18:07;4.07;;;2.00;;
46613;SDS011;32338;50.430;6.806;2023-07-20T02:20:34;4.40;;;2.10;;
46613;SDS011;32338;50.430;6.806;2023-07-20T02:23:02;7.60;;;1.70;;
46613;SDS011;32338;50.430;6.806;2023-07-20T02:25:29;2.95;;;1.55;;
46613;SDS011;32338;50.430;6.806;2023-07-20T02:27:55;2.67;;;1.65;;
46613;SDS011;32338;50.430;6.806;2023-07-20T02:30:22;3.67;;;1.60;;
46613;SDS011;32338;50.430;6.806;2023-07-20T02:32:49;5.15;;;1.60;;
46613;SDS011;32338;50.430;6.806;2023-07-20T02:35:16;5.15;;;1.88;;
46613;SDS011;32338;50.430;6.806;2023-07-20T02:37:42;3.30;;;1.77;;
46613;SDS011;32338;50.430;6.806;2023-07-20T02:40:11;5.20;;;1.75;;
46613;SDS011;32338;50.430;6.806;2023-07-20T02:42:37;2.63;;;1.67;;
46613;SDS011;32338;50.430;6.806;2023-07-20T02:45:05;2.78;;;1.73;;
46613;SDS011;32338;50.430;6.806;2023-07-20T02:47:32;2.40;;;1.92;;
46613;SDS011;32338;50.430;6.806;2023-07-20T02:49:59;4.25;;;1.95;;
46613;SDS011;32338;50.430;6.806;2023-07-20T02:52:25;2.50;;;2.17;;
46613;SDS011;32338;50.430;6.806;2023-07-20T02:54:52;5.00;;;1.60;;
46613;SDS011;32338;50.430;6.806;2023-07-20T02:57:20;15.82;;;2.38;;
46613;SDS011;32338;50.430;6.806;2023-07-20T02:59:47;7.75;;;1.75;;
46613;SDS011;32338;50.430;6.806;2023-07-20T03:02:14;3.20;;;1.60;;
46613;SDS011;32338;50.430;6.806;2023-07-20T03:04:40;12.90;;;2.17;;
46613;SDS011;32338;50.430;6.806;2023-07-20T03:07:07;5.18;;;1.80;;
46613;SDS011;32338;50.430;6.806;2023-07-20T03:09:33;16.40;;;1.98;;
46613;SDS011;32338;50.430;6.806;2023-07-20T03:12:00;4.40;;;1.60;;
46613;SDS011;32338;50.430;6.806;2023-07-20T03:14:31;3.85;;;1.50;;
46613;SDS011;32338;50.430;6.806;2023-07-20T03:16:57;4.63;;;1.65;;
46613;SDS011;32338;50.430;6.806;2023-07-20T03:19:24;4.38;;;1.88;;
46613;SDS011;32338;50.430;6.806;2023-07-20T03:21:51;11.05;;;1.63;;
46613;SDS011;32338;50.430;6.806;2023-07-20T03:24:17;3.88;;;1.65;;
46613;SDS011;32338;50.430;6.806;2023-07-20T03:26:44;1.90;;;1.50;;
46613;SDS011;32338;50.430;6.806;2023-07-20T03:29:10;1.98;;;1.55;;
46613;SDS011;32338;50.430;6.806;2023-07-20T03:31:38;2.60;;;1.83;;
46613;SDS011;32338;50.430;6.806;2023-07-20T03:34:05;2.80;;;1.42;;
46613;SDS011;32338;50.430;6.806;2023-07-20T03:36:33;2.70;;;1.88;;
46613;SDS011;32338;50.430;6.806;2023-07-20T03:39:00;4.25;;;1.60;;
46613;SDS011;32338;50.430;6.806;2023-07-20T03:41:27;4.07;;;1.92;;
46613;SDS011;32338;50.430;6.806;2023-07-20T03:43:54;5.00;;;1.98;;
46613;SDS011;32338;50.430;6.806;2023-07-20T03:46:21;2.33;;;1.48;;
46613;SDS011;32338;50.430;6.806;2023-07-20T03:48:48;3.60;;;1.80;;
46613;SDS011;32338;50.430;6.806;2023-07-20T03:51:15;4.53;;;1.90;;
46613;SDS011;32338;50.430;6.806;2023-07-20T03:53:42;3.83;;;1.63;;
46613;SDS011;32338;50.430;6.806;2023-07-20T03:56:08;3.38;;;1.73;;
46613;SDS011;32338;50.430;6.806;2023-07-20T03:58:35;6.35;;;1.70;;
46613;SDS011;32338;50.430;6.806;2023-07-20T04:01:02;4.82;;;1.70;;
46613;SDS011;32338;50.430;6.806;2023-07-20T04:03:28;3.65;;;1.73;;
46613;SDS011;32338;50.430;6.806;2023-07-20T04:05:56;5.60;;;1.70;;
46613;SDS011;32338;50.430;6.806;2023-07-20T04:08:23;5.72;;;1.90;;
46613;SDS011;32338;50.430;6.806;2023-07-20T04:10:50;5.15;;;2.45;;
46613;SDS011;32338;50.430;6.806;2023-07-20T04:13:17;3.72;;;1.77;;
46613;SDS011;32338;50.430;6.806;2023-07-20T04:15:44;5.18;;;1.70;;
46613;SDS011;32338;50.430;6.806;2023-07-20T04:18:10;5.03;;;1.55;;
46613;SDS011;32338;50.430;6.806;2023-07-20T04:20:37;3.03;;;1.90;;
46613;SDS011;32338;50.430;6.806;2023-07-20T04:23:05;6.30;;;1.73;;
46613;SDS011;32338;50.430;6.806;2023-07-20T04:25:32;3.92;;;1.70;;
46613;SDS011;32338;50.430;6.806;2023-07-20T04:28:04;5.05;;;1.50;;
46613;SDS011;32338;50.430;6.806;2023-07-20T04:30:33;1.98;;;1.40;;
46613;SDS011;32338;50.430;6.806;2023-07-20T04:33:00;7.78;;;1.52;;
46613;SDS011;32338;50.430;6.806;2023-07-20T04:35:46;6.13;;;1.70;;
46613;SDS011;32338;50.430;6.806;2023-07-20T04:38:16;5.05;;;1.70;;
46613;SDS011;32338;50.430;6.806;2023-07-20T04:40:43;1.75;;;1.60;;
46613;SDS011;32338;50.430;6.806;2023-07-20T04:43:10;5.68;;;1.80;;
46613;SDS011;32338;50.430;6.806;2023-07-20T04:45:37;4.88;;;1.80;;
46613;SDS011;32338;50.430;6.806;2023-07-20T04:48:05;3.92;;;1.52;;
46613;SDS011;32338;50.430;6.806;2023-07-20T04:50:37;3.63;;;1.55;;
46613;SDS011;32338;50.430;6.806;2023-07-20T04:53:04;5.85;;;1.73;;
46613;SDS011;32338;50.430;6.806;2023-07-20T04:55:32;4.78;;;1.70;;
46613;SDS011;32338;50.430;6.806;2023-07-20T04:58:00;5.90;;;1.73;;
46613;SDS011;32338;50.430;6.806;2023-07-20T05:00:26;2.45;;;1.67;;
46613;SDS011;32338;50.430;6.806;2023-07-20T05:02:53;4.90;;;2.03;;
46613;SDS011;32338;50.430;6.806;2023-07-20T05:05:20;9.05;;;1.63;;
46613;SDS011;32338;50.430;6.806;2023-07-20T05:07:46;5.32;;;1.80;;
46613;SDS011;32338;50.430;6.806;2023-07-20T05:10:13;4.75;;;1.95;;
46613;SDS011;32338;50.430;6.806;2023-07-20T05:12:41;2.60;;;1.70;;
46613;SDS011;32338;50.430;6.806;2023-07-20T05:15:08;5.10;;;1.92;;
46613;SDS011;32338;50.430;6.806;2023-07-20T05:17:35;4.10;;;1.73;;
46613;SDS011;32338;50.430;6.806;2023-07-20T05:20:02;5.18;;;2.17;;
46613;SDS011;32338;50.430;6.806;2023-07-20T05:22:29;3.83;;;1.90;;
46613;SDS011;32338;50.430;6.806;2023-07-20T05:24:56;8.88;;;1.88;;
46613;SDS011;32338;50.430;6.806;2023-07-20T05:27:23;2.65;;;2.08;;
46613;SDS011;32338;50.430;6.806;2023-07-20T05:29:51;6.75;;;2.72;;
46613;SDS011;32338;50.430;6.806;2023-07-20T05:32:17;6.60;;;3.35;;
46613;SDS011;32338;50.430;6.806;2023-07-20T05:34:44;8.50;;;3.60;;
46613;SDS011;32338;50.430;6.806;2023-07-20T05:37:10;4.72;;;3.10;;
46613;SDS011;32338;50.430;6.806;2023-07-20T05:39:37;8.38;;;4.32;;
46613;SDS011;32338;50.430;6.806;2023-07-20T05:42:04;5.72;;;4.30;;
46613;SDS011;32338;50.430;6.806;2023-07-20T05:44:31;12.98;;;3.78;;
46613;SDS011;32338;50.430;6.806;2023-07-20T05:46:59;4.53;;;3.70;;
46613;SDS011;32338;50.430;6.806;2023-07-20T05:49:25;6.63;;;3.40;;
46613;SDS011;32338;50.430;6.806;2023-07-20T05:51:52;5.68;;;3.30;;
46613;SDS011;32338;50.430;6.806;2023-07-20T05:54:18;6.55;;;5.40;;
46613;SDS011;32338;50.430;6.806;2023-07-20T05:56:45;10.68;;;5.90;;
46613;SDS011;32338;50.430;6.806;2023-07-20T05:59:12;14.52;;;5.60;;
46613;SDS011;32338;50.430;6.806;2023-07-20T06:01:38;7.38;;;5.35;;
46613;SDS011;32338;50.430;6.806;2023-07-20T06:04:06;8.55;;;5.55;;
46613;SDS011;32338;50.430;6.806;2023-07-20T06:06:33;9.48;;;4.78;;
46613;SDS011;32338;50.430;6.806;2023-07-20T06:09:00;6.40;;;5.10;;
46613;SDS011;32338;50.430;6.806;2023-07-20T06:11:28;5.90;;;4.32;;
46613;SDS011;32338;50.430;6.806;2023-07-20T06:13:55;6.28;;;4.45;;
46613;SDS011;32338;50.430;6.806;2023-07-20T06:16:22;7.18;;;4.18;;
46613;SDS011;32338;50.430;6.806;2023-07-20T06:18:48;7.97;;;5.00;;
46613;SDS011;32338;50.430;6.806;2023-07-20T06:21:16;9.65;;;5.07;;
46613;SDS011;32338;50.430;6.806;2023-07-20T06:23:43;10.10;;;5.00;;
46613;SDS011;32338;50.430;6.806;2023-07-20T06:26:09;7.60;;;4.18;;
46613;SDS011;32338;50.430;6.806;2023-07-20T06:28:36;8.18;;;4.93;;
46613;SDS011;32338;50.430;6.806;2023-07-20T06:31:03;10.35;;;4.80;;
46613;SDS011;32338;50.430;6.806;2023-07-20T06:33:30;7.35;;;4.57;;
46613;SDS011;32338;50.430;6.806;2023-07-20T06:35:57;8.15;;;4.10;;
46613;SDS011;32338;50.430;6.806;2023-07-20T06:38:25;7.50;;;3.35;;
46613;SDS011;32338;50.430;6.806;2023-07-20T06:40:52;3.05;;;2.85;;
46613;SDS011;32338;50.430;6.806;2023-07-20T06:43:19;4.07;;;2.50;;
46613;SDS011;32338;50.430;6.806;2023-07-20T06:45:50;6.32;;;3.03;;
46613;SDS011;32338;50.430;6.806;2023-07-20T06:48:17;7.85;;;3.88;;
46613;SDS011;32338;50.430;6.806;2023-07-20T06:50:44;5.72;;;2.95;;
46613;SDS011;32338;50.430;6.806;2023-07-20T06:53:10;7.07;;;2.90;;
46613;SDS011;32338;50.430;6.806;2023-07-20T06:55:38;5.32;;;2.28;;
46613;SDS011;32338;50.430;6.806;2023-07-20T06:58:05;4.95;;;2.38;;
46613;SDS011;32338;50.430;6.806;2023-07-20T07:00:32;3.47;;;2.45;;
46613;SDS011;32338;50.430;6.806;2023-07-20T07:02:58;1.90;;;1.70;;
46613;SDS011;32338;50.430;6.806;2023-07-20T07:05:26;5.60;;;2.70;;
46613;SDS011;32338;50.430;6.806;2023-07-20T07:07:52;5.90;;;1.92;;
46613;SDS011;32338;50.430;6.806;2023-07-20T07:10:19;3.03;;;2.03;;
46613;SDS011;32338;50.430;6.806;2023-07-20T07:12:47;7.35;;;2.00;;
46613;SDS011;32338;50.430;6.806;2023-07-20T07:15:13;5.55;;;1.95;;
46613;SDS011;32338;50.430;6.806;2023-07-20T07:17:40;3.47;;;1.67;;
46613;SDS011;32338;50.430;6.806;2023-07-20T07:20:08;4.15;;;1.63;;
46613;SDS011;32338;50.430;6.806;2023-07-20T07:22:35;2.50;;;1.60;;
46613;SDS011;32338;50.430;6.806;2023-07-20T07:25:02;6.18;;;1.98;;
46613;SDS011;32338;50.430;6.806;2023-07-20T07:27:29;4.70;;;2.05;;
46613;SDS011;32338;50.430;6.806;2023-07-20T07:29:57;4.10;;;1.60;;
46613;SDS011;32338;50.430;6.806;2023-07-20T07:32:24;2.83;;;1.65;;
46613;SDS011;32338;50.430;6.806;2023-07-20T07:34:50;3.40;;;1.67;;
46613;SDS011;32338;50.430;6.806;2023-07-20T07:37:17;3.75;;;2.03;;
46613;SDS011;32338;50.430;6.806;2023-07-20T07:39:44;3.22;;;1.23;;
46613;SDS011;32338;50.430;6.806;2023-07-20T07:42:11;3.65;;;1.25;;
46613;SDS011;32338;50.430;6.806;2023-07-20T07:44:38;2.25;;;1.52;;
46613;SDS011;32338;50.430;6.806;2023-07-20T07:47:06;3.42;;;1.42;;
46613;SDS011;32338;50.430;6.806;2023-07-20T07:49:33;2.35;;;1.50;;
46613;SDS011;32338;50.430;6.806;2023-07-20T07:52:00;1.70;;;1.35;;
46613;SDS011;32338;50.430;6.806;2023-07-20T07:54:27;2.70;;;1.40;;
46613;SDS011;32338;50.430;6.806;2023-07-20T07:56:54;3.22;;;1.60;;
46613;SDS011;32338;50.430;6.806;2023-07-20T07:59:20;4.72;;;1.83;;
46613;SDS011;32338;50.430;6.806;2023-07-20T08:01:47;3.75;;;1.48;;
46613;SDS011;32338;50.430;6.806;2023-07-20T08:04:15;3.50;;;1.25;;
46613;SDS011;32338;50.430;6.806;2023-07-20T08:06:42;3.28;;;1.60;;
46613;SDS011;32338;50.430;6.806;2023-07-20T08:09:08;2.28;;;1.30;;
46613;SDS011;32338;50.430;6.806;2023-07-20T08:11:35;1.67;;;1.27;;
46613;SDS011;32338;50.430;6.806;2023-07-20T08:14:01;2.55;;;1.20;;
46613;SDS011;32338;50.430;6.806;2023-07-20T08:16:28;1.90;;;1.00;;
46613;SDS011;32338;50.430;6.806;2023-07-20T08:18:54;2.08;;;0.80;;
46613;SDS011;32338;50.430;6.806;2023-07-20T08:21:22;1.33;;;1.08;;
46613;SDS011;32338;50.430;6.806;2023-07-20T08:23:49;1.98;;;1.00;;
46613;SDS011;32338;50.430;6.806;2023-07-20T08:26:16;1.90;;;1.00;;
46613;SDS011;32338;50.430;6.806;2023-07-20T08:28:43;1.85;;;1.10;;
46613;SDS011;32338;50.430;6.806;2023-07-20T08:31:10;1.08;;;0.95;;
46613;SDS011;32338;50.430;6.806;2023-07-20T08:33:37;2.15;;;1.05;;
46613;SDS011;32338;50.430;6.806;2023-07-20T08:36:03;3.70;;;0.80;;
46613;SDS011;32338;50.430;6.806;2023-07-20T08:38:32;1.42;;;0.90;;
46613;SDS011;32338;50.430;6.806;2023-07-20T08:40:59;2.67;;;0.77;;
46613;SDS011;32338;50.430;6.806;2023-07-20T08:43:27;2.15;;;0.95;;
46613;SDS011;32338;50.430;6.806;2023-07-20T08:45:55;1.77;;;1.15;;
46613;SDS011;32338;50.430;6.806;2023-07-20T08:48:22;1.67;;;0.75;;
46613;SDS011;32338;50.430;6.806;2023-07-20T08:50:50;1.60;;;0.90;;
46613;SDS011;32338;50.430;6.806;2023-07-20T08:53:19;4.13;;;0.90;;
46613;SDS011;32338;50.430;6.806;2023-07-20T08:55:48;2.92;;;0.90;;
46613;SDS011;32338;50.430;6.806;2023-07-20T08:58:17;2.33;;;0.80;;
46613;SDS011;32338;50.430;6.806;2023-07-20T09:00:43;2.35;;;0.73;;
46613;SDS011;32338;50.430;6.806;2023-07-20T09:03:11;3.38;;;0.80;;
46613;SDS011;32338;50.430;6.806;2023-07-20T09:05:37;0.73;;;0.60;;
46613;SDS011;32338;50.430;6.806;2023-07-20T09:08:05;1.67;;;0.77;;
46613;SDS011;32338;50.430;6.806;2023-07-20T09:10:32;2.50;;;0.77;;
46613;SDS011;32338;50.430;6.806;2023-07-20T09:13:00;1.17;;;0.70;;
46613;SDS011;32338;50.430;6.806;2023-07-20T09:15:29;1.73;;;0.70;;
46613;SDS011;32338;50.430;6.806;2023-07-20T09:17:56;1.27;;;0.80;;
46613;SDS011;32338;50.430;6.806;2023-07-20T09:20:28;1.38;;;0.70;;
46613;SDS011;32338;50.430;6.806;2023-07-20T09:22:58;1.58;;;0.50;;
46613;SDS011;32338;50.430;6.806;2023-07-20T09:25:25;2.00;;;0.60;;
46613;SDS011;32338;50.430;6.806;2023-07-20T09:27:53;1.98;;;0.60;;
46613;SDS011;32338;50.430;6.806;2023-07-20T09:30:24;0.82;;;0.60;;
46613;SDS011;32338;50.430;6.806;2023-07-20T09:32:51;2.25;;;0.60;;
46613;SDS011;32338;50.430;6.806;2023-07-20T09:35:19;5.18;;;0.77;;
46613;SDS011;32338;50.430;6.806;2023-07-20T09:37:46;5.25;;;0.73;;
46613;SDS011;32338;50.430;6.806;2023-07-20T09:40:16;3.50;;;0.60;;
46613;SDS011;32338;50.430;6.806;2023-07-20T09:42:44;1.27;;;0.70;;
46613;SDS011;32338;50.430;6.806;2023-07-20T09:45:10;1.52;;;0.70;;
46613;SDS011;32338;50.430;6.806;2023-07-20T09:47:39;2.58;;;0.63;;
46613;SDS011;32338;50.430;6.806;2023-07-20T09:50:06;1.30;;;0.77;;
46613;SDS011;32338;50.430;6.806;2023-07-20T09:52:36;1.13;;;0.60;;
46613;SDS011;32338;50.430;6.806;2023-07-20T09:55:05;1.08;;;0.70;;
46613;SDS011;32338;50.430;6.806;2023-07-20T09:57:32;2.15;;;0.73;;
46613;SDS011;32338;50.430;6.806;2023-07-20T09:59:59;2.53;;;0.60;;
46613;SDS011;32338;50.430;6.806;2023-07-20T10:02:30;1.33;;;0.70;;
46613;SDS011;32338;50.430;6.806;2023-07-20T10:05:02;1.25;;;0.60;;
46613;SDS011;32338;50.430;6.806;2023-07-20T10:07:30;1.52;;;0.80;;
46613;SDS011;32338;50.430;6.806;2023-07-20T10:09:59;1.00;;;0.75;;
46613;SDS011;32338;50.430;6.806;2023-07-20T10:12:30;1.30;;;0.80;;
46613;SDS011;32338;50.430;6.806;2023-07-20T10:14:59;1.10;;;0.65;;
46613;SDS011;32338;50.430;6.806;2023-07-20T10:17:31;0.93;;;0.60;;
46613;SDS011;32338;50.430;6.806;2023-07-20T10:19:58;1.35;;;0.80;;
46613;SDS011;32338;50.430;6.806;2023-07-20T10:22:31;2.15;;;0.70;;
46613;SDS011;32338;50.430;6.806;2023-07-20T10:25:01;2.13;;;0.70;;
46613;SDS011;32338;50.430;6.806;2023-07-20T10:27:30;8.70;;;0.82;;
46613;SDS011;32338;50.430;6.806;2023-07-20T10:29:56;1.70;;;0.80;;
46613;SDS011;32338;50.430;6.806;2023-07-20T10:32:26;1.20;;;0.73;;
46613;SDS011;32338;50.430;6.806;2023-07-20T10:34:55;1.33;;;0.65;;
46613;SDS011;32338;50.430;6.806;2023-07-20T10:40:25;3.33;;;0.70;;
46613;SDS011;32338;50.430;6.806;2023-07-20T10:42:56;2.08;;;0.60;;
46613;SDS011;32338;50.430;6.806;2023-07-20T10:45:36;1.17;;;0.60;;
46613;SDS011;32338;50.430;6.806;2023-07-20T10:48:06;0.90;;;0.63;;
46613;SDS011;32338;50.430;6.806;2023-07-20T10:50:38;1.02;;;0.70;;
46613;SDS011;32338;50.430;6.806;2023-07-20T10:53:18;1.95;;;0.80;;
46613;SDS011;32338;50.430;6.806;2023-07-20T10:55:45;4.03;;;0.70;;
46613;SDS011;32338;50.430;6.806;2023-07-20T10:58:15;1.38;;;0.63;;
46613;SDS011;32338;50.430;6.806;2023-07-20T11:00:57;0.60;;;0.60;;
46613;SDS011;32338;50.430;6.806;2023-07-20T11:03:29;1.30;;;1.00;;
46613;SDS011;32338;50.430;6.806;2023-07-20T11:05:57;2.38;;;0.63;;
46613;SDS011;32338;50.430;6.806;2023-07-20T11:08:41;2.40;;;0.70;;
46613;SDS011;32338;50.430;6.806;2023-07-20T11:11:24;1.30;;;0.60;;
46613;SDS011;32338;50.430;6.806;2023-07-20T11:13:54;1.38;;;0.60;;
46613;SDS011;32338;50.430;6.806;2023-07-20T11:19:15;1.65;;;0.85;;
46613;SDS011;32338;50.430;6.806;2023-07-20T11:21:43;1.58;;;0.80;;
46613;SDS011;32338;50.430;6.806;2023-07-20T11:24:13;0.90;;;0.70;;
46613;SDS011;32338;50.430;6.806;2023-07-20T11:26:40;1.88;;;0.98;;
46613;SDS011;32338;50.430;6.806;2023-07-20T11:29:07;1.52;;;0.60;;
46613;SDS011;32338;50.430;6.806;2023-07-20T11:31:35;1.63;;;0.70;;
46613;SDS011;32338;50.430;6.806;2023-07-20T11:34:02;0.70;;;0.70;;
46613;SDS011;32338;50.430;6.806;2023-07-20T11:36:28;1.35;;;0.70;;
46613;SDS011;32338;50.430;6.806;2023-07-20T11:38:55;0.80;;;0.50;;
46613;SDS011;32338;50.430;6.806;2023-07-20T11:41:25;1.52;;;0.73;;
46613;SDS011;32338;50.430;6.806;2023-07-20T11:43:52;0.85;;;0.80;;
46613;SDS011;32338;50.430;6.806;2023-07-20T11:46:20;1.25;;;0.60;;
46613;SDS011;32338;50.430;6.806;2023-07-20T11:48:47;1.17;;;0.80;;
46613;SDS011;32338;50.430;6.806;2023-07-20T11:51:14;1.63;;;1.17;;
46613;SDS011;32338;50.430;6.806;2023-07-20T11:53:41;2.00;;;0.93;;
46613;SDS011;32338;50.430;6.806;2023-07-20T11:56:08;1.73;;;0.70;;
46613;SDS011;32338;50.430;6.806;2023-07-20T11:58:37;1.27;;;0.60;;
46613;SDS011;32338;50.430;6.806;2023-07-20T12:01:08;1.30;;;0.88;;
46613;SDS011;32338;50.430;6.806;2023-07-20T12:03:35;0.60;;;0.60;;
46613;SDS011;32338;50.430;6.806;2023-07-20T12:06:06;2.80;;;0.90;;
46613;SDS011;32338;50.430;6.806;2023-07-20T12:08:33;1.27;;;0.80;;
46613;SDS011;32338;50.430;6.806;2023-07-20T12:10:59;1.83;;;0.73;;
46613;SDS011;32338;50.430;6.806;2023-07-20T12:13:35;1.20;;;0.63;;
46613;SDS011;32338;50.430;6.806;2023-07-20T12:16:07;2.28;;;0.75;;
46613;SDS011;32338;50.430;6.806;2023-07-20T12:18:36;0.93;;;0.70;;
46613;SDS011;32338;50.430;6.806;2023-07-20T12:21:02;1.45;;;0.80;;
46613;SDS011;32338;50.430;6.806;2023-07-20T12:23:34;3.72;;;0.70;;
46613;SDS011;32338;50.430;6.806;2023-07-20T12:26:02;2.33;;;0.60;;
46613;SDS011;32338;50.430;6.806;2023-07-20T12:28:30;1.80;;;0.80;;
46613;SDS011;32338;50.430;6.806;2023-07-20T12:30:59;5.25;;;0.88;;
46613;SDS011;32338;50.430;6.806;2023-07-20T12:33:25;1.00;;;0.50;;
46613;SDS011;32338;50.430;6.806;2023-07-20T12:35:52;1.25;;;0.82;;
46613;SDS011;32338;50.430;6.806;2023-07-20T12:38:21;0.77;;;0.50;;
46613;SDS011;32338;50.430;6.806;2023-07-20T12:40:49;0.95;;;0.65;;
46613;SDS011;32338;50.430;6.806;2023-07-20T12:43:15;1.52;;;0.90;;
46613;SDS011;32338;50.430;6.806;2023-07-20T12:45:42;1.77;;;0.70;;
46613;SDS011;32338;50.430;6.806;2023-07-20T12:48:10;2.70;;;0.77;;
46613;SDS011;32338;50.430;6.806;2023-07-20T12:50:37;2.20;;;0.50;;
46613;SDS011;32338;50.430;6.806;2023-07-20T12:53:04;0.82;;;0.50;;
46613;SDS011;32338;50.430;6.806;2023-07-20T12:55:30;0.52;;;0.50;;
46613;SDS011;32338;50.430;6.806;2023-07-20T12:57:57;2.15;;;0.50;;
46613;SDS011;32338;50.430;6.806;2023-07-20T13:00:24;1.15;;;0.60;;
46613;SDS011;32338;50.430;6.806;2023-07-20T13:02:51;0.93;;;0.70;;
46613;SDS011;32338;50.430;6.806;2023-07-20T13:05:19;0.60;;;0.60;;
46613;SDS011;32338;50.430;6.806;2023-07-20T13:07:46;1.95;;;0.70;;
46613;SDS011;32338;50.430;6.806;2023-07-20T13:10:12;2.25;;;0.65;;
46613;SDS011;32338;50.430;6.806;2023-07-20T13:12:39;1.10;;;0.70;;
46613;SDS011;32338;50.430;6.806;2023-07-20T13:15:06;0.90;;;0.70;;
46613;SDS011;32338;50.430;6.806;2023-07-20T13:17:34;2.35;;;0.82;;
46613;SDS011;32338;50.430;6.806;2023-07-20T13:20:01;1.05;;;0.70;;
46613;SDS011;32338;50.430;6.806;2023-07-20T13:22:31;1.20;;;0.70;;
46613;SDS011;32338;50.430;6.806;2023-07-20T13:24:57;1.52;;;0.65;;
46613;SDS011;32338;50.430;6.806;2023-07-20T13:27:24;2.03;;;0.70;;
46613;SDS011;32338;50.430;6.806;2023-07-20T13:29:51;2.30;;;0.88;;
46613;SDS011;32338;50.430;6.806;2023-07-20T13:32:18;0.98;;;0.73;;
46613;SDS011;32338;50.430;6.806;2023-07-20T13:34:45;0.60;;;0.60;;
46613;SDS011;32338;50.430;6.806;2023-07-20T13:37:12;1.20;;;0.80;;
46613;SDS011;32338;50.430;6.806;2023-07-20T13:39:40;0.98;;;0.60;;
46613;SDS011;32338;50.430;6.806;2023-07-20T13:42:07;1.00;;;0.70;;
46613;SDS011;32338;50.430;6.806;2023-07-20T13:44:34;1.75;;;0.75;;
46613;SDS011;32338;50.430;6.806;2023-07-20T13:47:01;1.95;;;0.60;;
46613;SDS011;32338;50.430;6.806;2023-07-20T13:49:28;1.75;;;0.80;;
46613;SDS011;32338;50.430;6.806;2023-07-20T13:51:55;0.75;;;0.60;;
46613;SDS011;32338;50.430;6.806;2023-07-20T13:54:22;1.15;;;0.60;;
46613;SDS011;32338;50.430;6.806;2023-07-20T13:56:50;2.40;;;0.60;;
46613;SDS011;32338;50.430;6.806;2023-07-20T13:59:17;2.95;;;0.80;;
46613;SDS011;32338;50.430;6.806;2023-07-20T14:01:44;0.73;;;0.70;;
46613;SDS011;32338;50.430;6.806;2023-07-20T14:04:11;1.35;;;0.70;;
46613;SDS011;32338;50.430;6.806;2023-07-20T14:06:37;1.20;;;0.60;;
46613;SDS011;32338;50.430;6.806;2023-07-20T14:09:04;1.55;;;0.73;;
46613;SDS011;32338;50.430;6.806;2023-07-20T14:11:31;4.28;;;0.70;;
46613;SDS011;32338;50.430;6.806;2023-07-20T14:13:58;0.95;;;0.52;;
46613;SDS011;32338;50.430;6.806;2023-07-20T14:16:25;0.75;;;0.50;;
46613;SDS011;32338;50.430;6.806;2023-07-20T14:18:52;1.17;;;0.60;;
46613;SDS011;32338;50.430;6.806;2023-07-20T14:21:19;0.70;;;0.60;;
46613;SDS011;32338;50.430;6.806;2023-07-20T14:23:47;0.68;;;0.57;;
46613;SDS011;32338;50.430;6.806;2023-07-20T14:26:14;1.58;;;0.60;;
46613;SDS011;32338;50.430;6.806;2023-07-20T14:28:41;4.72;;;0.60;;
46613;SDS011;32338;50.430;6.806;2023-07-20T14:31:09;0.88;;;0.50;;
46613;SDS011;32338;50.430;6.806;2023-07-20T14:33:36;0.63;;;0.50;;
46613;SDS011;32338;50.430;6.806;2023-07-20T14:36:02;1.40;;;0.70;;
46613;SDS011;32338;50.430;6.806;2023-07-20T14:38:30;1.17;;;0.60;;
46613;SDS011;32338;50.430;6.806;2023-07-20T14:40:57;0.68;;;0.60;;
46613;SDS011;32338;50.430;6.806;2023-07-20T14:43:24;0.50;;;0.50;;
46613;SDS011;32338;50.430;6.806;2023-07-20T14:45:51;1.10;;;0.60;;
46613;SDS011;32338;50.430;6.806;2023-07-20T14:48:20;0.60;;;0.50;;
46613;SDS011;32338;50.430;6.806;2023-07-20T14:50:47;1.75;;;0.60;;
46613;SDS011;32338;50.430;6.806;2023-07-20T14:53:13;1.27;;;0.60;;
46613;SDS011;32338;50.430;6.806;2023-07-20T14:55:41;0.80;;;0.60;;
46613;SDS011;32338;50.430;6.806;2023-07-20T14:58:08;1.05;;;0.80;;